createdAt,value
2019-02-24T00:01:04.727Z,61.20
2019-02-24T00:03:38.656Z,61.01
2019-02-24T00:06:12.733Z,61.07
2019-02-24T00:08:47.038Z,61.25
2019-02-24T00:11:21.305Z,61.41
2019-02-24T00:13:55.615Z,61.33
2019-02-24T00:16:30.001Z,61.15
2019-02-24T00:19:04.138Z,61.41
2019-02-24T00:21:38.644Z,61.40
2019-02-24T00:24:12.766Z,61.41
2019-02-24T00:26:47.154Z,61.51
2019-02-24T00:29:21.420Z,61.36
2019-02-24T00:31:55.853Z,61.50
2019-02-24T00:34:30.074Z,61.46
2019-02-24T00:37:04.223Z,61.40
2019-02-24T00:39:38.338Z,61.52
2019-02-24T00:42:12.629Z,61.49
2019-02-24T00:44:46.717Z,61.42
2019-02-24T00:47:21.262Z,61.53
2019-02-24T00:49:55.319Z,61.56
2019-02-24T00:52:29.806Z,61.51
2019-02-24T00:55:03.809Z,61.58
2019-02-24T00:57:38.107Z,61.53
2019-02-24T01:00:13.035Z,61.27
2019-02-24T01:02:47.828Z,61.42
2019-02-24T01:05:22.258Z,61.48
2019-02-24T01:07:56.284Z,61.35
2019-02-24T01:10:31.343Z,61.59
2019-02-24T01:13:05.725Z,61.52
2019-02-24T01:15:39.936Z,61.48
2019-02-24T01:18:13.930Z,61.56
2019-02-24T01:20:48.210Z,61.58
2019-02-24T01:23:22.733Z,61.54
2019-02-24T01:25:56.817Z,61.48
2019-02-24T01:28:31.252Z,61.65
2019-02-24T01:31:06.665Z,61.61
2019-02-24T01:33:41.093Z,61.60
2019-02-24T01:36:15.268Z,61.60
2019-02-24T01:38:50.314Z,61.57
2019-02-24T01:41:24.751Z,61.60
2019-02-24T01:43:59.168Z,61.58
2019-02-24T01:46:33.337Z,61.67
2019-02-24T01:49:07.535Z,61.57
2019-02-24T01:51:41.992Z,61.63
2019-02-24T01:54:17.138Z,61.65
2019-02-24T01:56:51.399Z,61.59
2019-02-24T01:59:25.665Z,61.51
2019-02-24T02:01:59.973Z,61.72
2019-02-24T02:04:34.073Z,61.68
2019-02-24T02:07:08.153Z,61.62
2019-02-24T02:09:42.334Z,61.69
2019-02-24T02:12:18.887Z,61.66
2019-02-24T02:14:52.793Z,61.74
2019-02-24T02:17:27.161Z,61.81
2019-02-24T02:20:02.503Z,61.77
2019-02-24T02:22:36.533Z,61.63
2019-02-24T02:25:11.817Z,61.81
2019-02-24T02:27:46.112Z,61.70
2019-02-24T02:30:20.157Z,61.67
2019-02-24T02:32:54.347Z,61.77
2019-02-24T02:35:28.566Z,61.73
2019-02-24T02:38:02.884Z,61.66
2019-02-24T02:40:37.148Z,61.73
2019-02-24T02:43:11.923Z,61.55
2019-02-24T02:45:46.253Z,61.64
2019-02-24T02:48:20.412Z,61.50
2019-02-24T02:50:54.617Z,61.67
2019-02-24T02:53:28.733Z,61.60
2019-02-24T02:56:03.736Z,61.62
2019-02-24T02:58:37.859Z,61.58
2019-02-24T03:01:12.257Z,61.62
2019-02-24T03:03:46.388Z,61.62
2019-02-24T03:06:38.852Z,61.66
2019-02-24T03:09:13.505Z,61.78
2019-02-24T03:11:47.430Z,61.69
2019-02-24T03:14:21.472Z,61.70
2019-02-24T03:16:55.629Z,61.74
2019-02-24T03:19:30.046Z,61.67
2019-02-24T03:22:04.368Z,61.57
2019-02-24T03:24:38.521Z,61.75
2019-02-24T03:27:12.671Z,61.82
2019-02-24T03:29:46.812Z,61.45
2019-02-24T03:32:20.941Z,61.69
2019-02-24T03:34:55.164Z,61.75
2019-02-24T03:37:29.766Z,61.70
2019-02-24T03:40:04.006Z,61.61
2019-02-24T03:42:38.112Z,61.42
2019-02-24T03:45:12.310Z,61.56
2019-02-24T03:47:46.668Z,61.31
2019-02-24T03:50:20.923Z,61.68
2019-02-24T03:52:55.100Z,61.11
2019-02-24T03:55:29.462Z,61.75
2019-02-24T03:58:03.528Z,61.81
2019-02-24T04:00:37.603Z,61.63
2019-02-24T04:03:12.076Z,61.74
2019-02-24T04:05:46.361Z,61.64
2019-02-24T04:08:20.766Z,61.72
2019-02-24T04:10:55.045Z,61.67
2019-02-24T04:13:29.198Z,61.68
2019-02-24T04:16:03.250Z,61.74
2019-02-24T04:18:37.604Z,61.53
2019-02-24T04:21:11.862Z,61.66
2019-02-24T04:23:46.142Z,61.75
2019-02-24T04:26:21.322Z,61.76
2019-02-24T04:28:55.525Z,61.68
2019-02-24T04:31:30.054Z,61.72
2019-02-24T04:34:04.552Z,61.82
2019-02-24T04:36:38.513Z,61.72
2019-02-24T04:39:12.826Z,61.67
2019-02-24T04:41:47.467Z,61.69
2019-02-24T04:44:21.373Z,61.79
2019-02-24T04:46:55.433Z,61.78
2019-02-24T04:49:29.667Z,61.79
2019-02-24T04:52:03.871Z,61.69
2019-02-24T04:54:38.022Z,61.71
2019-02-24T04:57:12.395Z,61.65
2019-02-24T04:59:46.452Z,61.59
2019-02-24T05:02:20.564Z,61.56
2019-02-24T05:04:54.780Z,61.57
2019-02-24T05:07:29.122Z,61.56
2019-02-24T05:10:03.396Z,61.62
2019-02-24T05:12:37.830Z,61.52
2019-02-24T05:15:11.877Z,61.51
2019-02-24T05:17:46.130Z,61.54
2019-02-24T05:20:20.269Z,60.52
2019-02-24T05:22:54.939Z,60.73
2019-02-24T05:25:30.110Z,61.18
2019-02-24T05:28:04.378Z,61.29
2019-02-24T05:30:38.503Z,61.26
2019-02-24T05:33:12.523Z,60.24
2019-02-24T05:35:47.033Z,60.95
2019-02-24T05:38:21.356Z,60.15
2019-02-24T05:40:55.778Z,61.22
2019-02-24T05:43:31.066Z,61.17
2019-02-24T05:46:05.330Z,60.52
2019-02-24T05:48:39.486Z,61.21
2019-02-24T05:51:13.580Z,61.12
2019-02-24T05:53:47.446Z,61.19
2019-02-24T05:56:22.024Z,59.84
2019-02-24T05:58:56.230Z,60.99
2019-02-24T06:01:30.652Z,61.19
2019-02-24T06:04:04.768Z,61.20
2019-02-24T06:06:39.308Z,61.21
2019-02-24T06:09:13.479Z,61.17
2019-02-24T06:11:47.698Z,61.17
2019-02-24T06:14:21.903Z,61.18
2019-02-24T06:16:56.067Z,61.15
2019-02-24T06:19:30.321Z,61.02
2019-02-24T06:22:04.441Z,61.14
2019-02-24T06:24:38.479Z,61.23
2019-02-24T06:27:12.675Z,61.21
2019-02-24T06:29:47.018Z,61.18
2019-02-24T06:32:21.320Z,61.18
2019-02-24T06:34:55.674Z,61.20
2019-02-24T06:37:30.131Z,61.19
2019-02-24T06:40:04.554Z,61.30
2019-02-24T06:42:39.066Z,61.21
2019-02-24T06:45:13.508Z,61.14
2019-02-24T06:47:48.245Z,61.01
2019-02-24T06:50:23.305Z,61.08
2019-02-24T06:52:57.364Z,61.15
2019-02-24T06:55:31.800Z,61.29
2019-02-24T06:58:07.784Z,61.29
2019-02-24T07:00:42.114Z,61.00
2019-02-24T07:03:17.647Z,61.25
2019-02-24T07:05:52.569Z,60.99
2019-02-24T07:08:28.122Z,61.11
2019-02-24T07:11:02.244Z,61.16
2019-02-24T07:13:36.685Z,61.12
2019-02-24T07:16:10.880Z,60.91
2019-02-24T07:18:45.225Z,60.90
2019-02-24T07:21:19.274Z,60.80
2019-02-24T07:23:53.403Z,60.86
2019-02-24T07:26:27.683Z,60.92
2019-02-24T07:29:01.969Z,60.90
2019-02-24T07:31:36.009Z,60.76
2019-02-24T07:34:10.037Z,60.79
2019-02-24T07:36:44.354Z,60.87
2019-02-24T07:39:18.489Z,60.73
2019-02-24T07:41:52.510Z,60.76
2019-02-24T07:44:26.492Z,60.74
2019-02-24T07:47:00.747Z,60.44
2019-02-24T07:49:35.088Z,60.62
2019-02-24T07:52:09.340Z,60.63
2019-02-24T07:54:43.676Z,60.62
2019-02-24T07:57:17.949Z,60.73
2019-02-24T07:59:52.228Z,60.77
2019-02-24T08:02:26.348Z,60.56
2019-02-24T08:05:00.568Z,60.54
2019-02-24T08:07:34.680Z,60.59
2019-02-24T08:10:09.353Z,60.59
2019-02-24T08:12:43.521Z,60.67
2019-02-24T08:15:17.674Z,60.67
2019-02-24T08:17:51.827Z,60.60
2019-02-24T08:20:25.926Z,60.74
2019-02-24T08:23:00.134Z,60.71
2019-02-24T08:25:34.473Z,60.59
2019-02-24T08:28:08.445Z,60.79
2019-02-24T08:30:44.165Z,60.75
2019-02-24T08:33:18.339Z,60.72
2019-02-24T08:35:52.681Z,60.72
2019-02-24T08:38:26.732Z,60.79
2019-02-24T08:41:00.801Z,60.68
2019-02-24T08:43:35.769Z,60.69
2019-02-24T08:46:09.856Z,60.78
2019-02-24T08:48:44.064Z,60.84
2019-02-24T08:51:18.022Z,60.82
2019-02-24T08:53:52.237Z,60.60
2019-02-24T08:56:26.734Z,60.66
2019-02-24T08:59:01.905Z,60.69
2019-02-24T09:01:36.284Z,60.77
2019-02-24T09:04:11.107Z,60.77
2019-02-24T09:06:45.405Z,60.77
2019-02-24T09:09:19.570Z,60.76
2019-02-24T09:11:53.613Z,60.62
2019-02-24T09:14:27.587Z,60.60
2019-02-24T09:17:01.905Z,60.72
2019-02-24T09:19:37.115Z,60.66
2019-02-24T09:22:12.488Z,60.67
2019-02-24T09:24:46.799Z,60.60
2019-02-24T09:27:20.994Z,60.83
2019-02-24T09:29:55.083Z,60.75
2019-02-24T09:32:29.762Z,60.73
2019-02-24T09:35:07.214Z,60.68
2019-02-24T09:37:41.461Z,60.75
2019-02-24T09:40:15.758Z,60.81
2019-02-24T09:42:49.950Z,60.81
2019-02-24T09:45:24.057Z,60.85
2019-02-24T09:47:58.149Z,60.76
2019-02-24T09:50:32.370Z,60.66
2019-02-24T09:53:09.484Z,60.71
2019-02-24T09:55:43.604Z,60.58
2019-02-24T09:58:17.717Z,60.53
2019-02-24T10:00:52.027Z,60.93
2019-02-24T10:03:27.212Z,60.73
2019-02-24T10:06:01.245Z,60.63
2019-02-24T10:08:35.494Z,60.63
2019-02-24T10:11:10.291Z,60.41
2019-02-24T10:13:44.754Z,60.69
2019-02-24T10:16:19.253Z,60.67
2019-02-24T10:18:53.242Z,60.72
2019-02-24T10:21:27.787Z,60.60
2019-02-24T10:24:01.828Z,60.78
2019-02-24T10:26:36.397Z,60.76
2019-02-24T10:29:10.675Z,60.73
2019-02-24T10:31:44.927Z,60.78
2019-02-24T10:34:20.158Z,60.90
2019-02-24T10:36:54.287Z,60.90
2019-02-24T10:39:29.988Z,60.83
2019-02-24T10:42:04.341Z,60.91
2019-02-24T10:44:38.600Z,60.89
2019-02-24T10:47:12.813Z,60.79
2019-02-24T10:49:48.126Z,60.92
2019-02-24T10:52:22.341Z,60.78
2019-02-24T10:54:56.525Z,60.71
2019-02-24T10:57:30.929Z,60.92
2019-02-24T11:00:05.149Z,60.75
2019-02-24T11:02:39.687Z,60.87
2019-02-24T11:05:14.328Z,60.99
2019-02-24T11:07:48.557Z,60.94
2019-02-24T11:10:22.996Z,61.04
2019-02-24T11:12:58.301Z,60.94
2019-02-24T11:15:32.494Z,60.90
2019-02-24T11:18:07.004Z,60.94
2019-02-24T11:20:41.511Z,60.96
2019-02-24T11:23:15.718Z,60.91
2019-02-24T11:25:50.144Z,60.96
2019-02-24T11:28:24.400Z,60.95
2019-02-24T11:30:59.605Z,61.04
2019-02-24T11:33:33.965Z,61.09
2019-02-24T11:36:07.991Z,60.96
2019-02-24T11:38:43.335Z,61.04
2019-02-24T11:41:17.632Z,61.02
2019-02-24T11:43:52.224Z,61.02
2019-02-24T11:46:26.547Z,61.03
2019-02-24T11:49:00.718Z,61.03
2019-02-24T11:51:34.719Z,61.09
2019-02-24T11:54:09.099Z,61.08
2019-02-24T11:56:43.177Z,61.16
2019-02-24T11:59:17.436Z,61.16
2019-02-24T12:01:53.489Z,61.13
2019-02-24T12:04:27.984Z,61.19
2019-02-24T12:07:01.770Z,61.14
2019-02-24T12:09:36.184Z,61.15
2019-02-24T12:12:10.321Z,61.19
2019-02-24T12:14:45.034Z,61.26
2019-02-24T12:17:19.274Z,61.32
2019-02-24T12:19:53.783Z,61.32
2019-02-24T12:22:34.650Z,61.30
2019-02-24T12:25:12.218Z,61.37
2019-02-24T12:27:46.511Z,61.39
2019-02-24T12:30:24.170Z,61.42
2019-02-24T12:33:00.637Z,61.49
2019-02-24T12:35:34.838Z,61.51
2019-02-24T12:38:09.217Z,61.50
2019-02-24T12:40:44.336Z,61.60
2019-02-24T12:43:19.789Z,61.65
2019-02-24T12:45:56.062Z,61.70
2019-02-24T12:48:30.364Z,61.70
2019-02-24T12:51:04.757Z,61.78
2019-02-24T12:53:38.819Z,61.85
2019-02-24T12:56:14.846Z,61.83
2019-02-24T12:58:48.907Z,61.86
2019-02-24T13:01:23.359Z,61.83
2019-02-24T13:03:57.803Z,61.85
2019-02-24T13:06:32.371Z,61.91
2019-02-24T13:09:10.799Z,61.97
2019-02-24T13:11:46.094Z,62.00
2019-02-24T13:14:20.352Z,62.03
2019-02-24T13:16:54.543Z,61.96
2019-02-24T13:19:28.791Z,62.06
2019-02-24T13:22:02.994Z,62.05
2019-02-24T13:24:37.110Z,62.13
2019-02-24T13:27:11.109Z,62.13
2019-02-24T13:29:45.454Z,62.08
2019-02-24T13:32:19.769Z,62.08
2019-02-24T13:34:53.971Z,62.20
2019-02-24T13:37:27.947Z,62.18
2019-02-24T13:40:02.185Z,62.16
2019-02-24T13:42:37.714Z,62.32
2019-02-24T13:45:14.058Z,62.36
2019-02-24T13:47:48.124Z,62.40
2019-02-24T13:50:23.136Z,62.44
2019-02-24T13:52:57.349Z,62.47
2019-02-24T13:55:31.608Z,62.45
2019-02-24T13:58:05.488Z,62.51
2019-02-24T14:00:40.736Z,62.48
2019-02-24T14:03:14.951Z,62.49
2019-02-24T14:05:49.320Z,62.50
2019-02-24T14:08:23.521Z,62.51
2019-02-24T14:10:57.497Z,62.52
2019-02-24T14:13:32.138Z,62.57
2019-02-24T14:16:06.320Z,62.71
2019-02-24T14:18:40.313Z,62.70
2019-02-24T14:21:14.377Z,62.75
2019-02-24T14:23:48.531Z,62.73
2019-02-24T14:26:23.672Z,62.72
2019-02-24T14:28:57.597Z,62.74
2019-02-24T14:31:31.756Z,62.76
2019-02-24T14:34:06.160Z,62.85
2019-02-24T14:36:40.409Z,62.90
2019-02-24T14:39:14.715Z,62.91
2019-02-24T14:41:48.726Z,62.88
2019-02-24T14:44:23.512Z,63.00
2019-02-24T14:46:57.747Z,62.90
2019-02-24T14:49:32.060Z,62.97
2019-02-24T14:52:07.239Z,63.02
2019-02-24T14:54:41.537Z,63.01
2019-02-24T14:57:16.691Z,62.99
2019-02-24T14:59:51.827Z,62.99
2019-02-24T15:02:26.048Z,63.04
2019-02-24T15:05:00.308Z,62.95
2019-02-24T15:07:35.525Z,63.05
2019-02-24T15:10:11.067Z,63.02
2019-02-24T15:12:46.030Z,63.07
2019-02-24T15:15:21.174Z,63.02
2019-02-24T15:17:56.761Z,62.91
2019-02-24T15:20:31.179Z,63.07
2019-02-24T15:23:06.723Z,63.01
2019-02-24T15:25:41.041Z,62.98
2019-02-24T15:28:15.028Z,63.13
2019-02-24T15:30:49.064Z,63.10
2019-02-24T15:33:23.240Z,63.13
2019-02-24T15:35:57.440Z,63.14
2019-02-24T15:38:31.513Z,63.07
2019-02-24T15:41:05.813Z,63.05
2019-02-24T15:43:39.889Z,63.00
2019-02-24T15:46:14.272Z,63.07
2019-02-24T15:48:48.834Z,63.17
2019-02-24T15:51:23.333Z,63.02
2019-02-24T15:53:57.454Z,62.99
2019-02-24T15:56:31.742Z,63.04
2019-02-24T15:59:05.968Z,62.78
2019-02-24T16:01:40.375Z,62.81
2019-02-24T16:04:14.514Z,62.97
2019-02-24T16:06:49.622Z,63.05
2019-02-24T16:09:23.661Z,62.98
2019-02-24T16:11:58.004Z,62.96
2019-02-24T16:14:31.972Z,62.98
2019-02-24T16:17:10.413Z,62.77
2019-02-24T16:19:44.577Z,62.98
2019-02-24T16:22:18.892Z,63.03
2019-02-24T16:24:53.072Z,63.05
2019-02-24T16:27:27.222Z,62.92
2019-02-24T16:30:01.512Z,62.69
2019-02-24T16:32:35.455Z,62.80
2019-02-24T16:35:10.397Z,63.17
2019-02-24T16:37:45.579Z,63.09
2019-02-24T16:40:20.884Z,63.09
2019-02-24T16:42:55.201Z,63.03
2019-02-24T16:45:29.511Z,63.10
2019-02-24T16:48:03.936Z,62.98
2019-02-24T16:50:38.200Z,63.19
2019-02-24T16:53:14.093Z,63.13
2019-02-24T16:55:48.304Z,63.00
2019-02-24T16:58:22.311Z,63.05
2019-02-24T17:00:56.536Z,63.11
2019-02-24T17:03:30.936Z,62.94
2019-02-24T17:06:06.182Z,62.91
2019-02-24T17:08:40.213Z,62.95
2019-02-24T17:11:14.850Z,62.95
2019-02-24T17:13:49.090Z,62.94
2019-02-24T17:16:23.040Z,62.79
2019-02-24T17:18:57.266Z,62.75
2019-02-24T17:21:31.575Z,62.85
2019-02-24T17:24:05.892Z,63.02
2019-02-24T17:26:39.976Z,63.05
2019-02-24T17:29:14.095Z,62.88
2019-02-24T17:31:48.361Z,63.04
2019-02-24T17:34:22.482Z,62.97
2019-02-24T17:36:56.916Z,62.88
2019-02-24T17:39:31.019Z,63.03
2019-02-24T17:42:05.038Z,62.91
2019-02-24T17:44:39.215Z,63.01
2019-02-24T17:47:14.462Z,62.96
2019-02-24T17:49:48.503Z,62.94
2019-02-24T17:52:22.834Z,62.81
2019-02-24T17:54:57.088Z,62.97
2019-02-24T17:57:31.326Z,62.88
2019-02-24T18:00:05.450Z,62.89
2019-02-24T18:02:39.948Z,62.96
2019-02-24T18:05:14.033Z,62.99
2019-02-24T18:07:48.160Z,62.98
2019-02-24T18:10:22.369Z,62.85
2019-02-24T18:12:56.629Z,62.80
2019-02-24T18:15:30.668Z,62.95
2019-02-24T18:18:04.814Z,62.92
2019-02-24T18:20:39.034Z,62.92
2019-02-24T18:23:13.206Z,63.03
2019-02-24T18:25:47.440Z,63.04
2019-02-24T18:28:21.811Z,63.00
2019-02-24T18:30:56.276Z,63.08
2019-02-24T18:33:30.517Z,63.10
2019-02-24T18:36:04.713Z,63.06
2019-02-24T18:38:39.156Z,63.06
2019-02-24T18:41:13.425Z,62.99
2019-02-24T18:43:47.762Z,63.11
2019-02-24T18:46:22.026Z,63.05
2019-02-24T18:48:56.495Z,63.04
2019-02-24T18:51:30.838Z,63.09
2019-02-24T18:54:05.440Z,63.00
2019-02-24T18:56:39.621Z,62.94
2019-02-24T18:59:13.816Z,62.95
2019-02-24T19:01:47.925Z,63.01
2019-02-24T19:04:22.138Z,63.14
2019-02-24T19:06:58.145Z,63.19
2019-02-24T19:09:32.705Z,63.10
2019-02-24T19:12:06.947Z,63.04
2019-02-24T19:14:41.218Z,63.10
2019-02-24T19:17:15.573Z,63.06
2019-02-24T19:19:49.859Z,63.03
2019-02-24T19:22:24.124Z,62.90
2019-02-24T19:24:58.045Z,63.09
2019-02-24T19:27:32.085Z,63.11
2019-02-24T19:30:06.635Z,63.08
2019-02-24T19:32:41.337Z,63.21
2019-02-24T19:35:15.988Z,63.12
2019-02-24T19:37:50.074Z,63.15
2019-02-24T19:40:24.539Z,63.16
2019-02-24T19:42:58.814Z,63.09
2019-02-24T19:45:33.131Z,63.08
2019-02-24T19:48:07.123Z,63.10
2019-02-24T19:50:41.659Z,63.16
2019-02-24T19:53:15.899Z,63.09
2019-02-24T19:55:50.225Z,63.09
2019-02-24T19:58:24.546Z,63.12
2019-02-24T20:00:58.767Z,63.07
2019-02-24T20:03:32.912Z,63.02
2019-02-24T20:06:07.102Z,63.02
2019-02-24T20:08:41.211Z,63.02
2019-02-24T20:11:15.414Z,63.02
2019-02-24T20:13:49.679Z,63.13
2019-02-24T20:16:23.909Z,63.00
2019-02-24T20:18:58.002Z,62.86
2019-02-24T20:21:32.401Z,62.97
2019-02-24T20:24:06.676Z,62.97
2019-02-24T20:26:40.850Z,63.07
2019-02-24T20:29:15.248Z,62.89
2019-02-24T20:31:49.478Z,62.96
2019-02-24T20:34:25.848Z,62.89
2019-02-24T20:36:59.141Z,62.96
2019-02-24T20:39:33.215Z,63.00
2019-02-24T20:42:07.400Z,63.02
2019-02-24T20:44:41.652Z,62.94
2019-02-24T20:47:15.698Z,62.90
2019-02-24T20:49:49.876Z,62.74
2019-02-24T20:52:23.767Z,62.79
2019-02-24T20:54:57.948Z,62.94
2019-02-24T20:57:32.175Z,62.88
2019-02-24T21:00:06.507Z,62.93
2019-02-24T21:02:42.117Z,62.85
2019-02-24T21:05:16.471Z,62.92
2019-02-24T21:07:50.697Z,62.90
2019-02-24T21:10:24.883Z,62.86
2019-02-24T21:12:59.412Z,62.85
2019-02-24T21:15:33.779Z,62.92
2019-02-24T21:18:08.192Z,62.79
2019-02-24T21:20:42.382Z,62.75
2019-02-24T21:23:16.864Z,62.85
2019-02-24T21:25:50.958Z,62.82
2019-02-24T21:28:25.484Z,62.72
2019-02-24T21:30:59.521Z,62.79
2019-02-24T21:33:33.657Z,62.80
2019-02-24T21:36:07.871Z,62.79
2019-02-24T21:38:42.412Z,62.75
2019-02-24T21:41:16.359Z,62.70
2019-02-24T21:43:51.819Z,62.75
2019-02-24T21:46:25.983Z,62.71
2019-02-24T21:49:00.399Z,62.83
2019-02-24T21:51:34.701Z,62.70
2019-02-24T21:54:09.434Z,62.88
2019-02-24T21:56:43.621Z,62.77
2019-02-24T21:59:17.901Z,62.86
2019-02-24T22:01:51.975Z,62.56
2019-02-24T22:04:26.328Z,62.87
2019-02-24T22:07:00.604Z,62.76
2019-02-24T22:09:34.787Z,62.71
2019-02-24T22:12:08.824Z,62.75
2019-02-24T22:14:45.247Z,62.79
2019-02-24T22:17:19.535Z,62.85
2019-02-24T22:19:53.803Z,62.75
2019-02-24T22:22:28.149Z,62.73
2019-02-24T22:25:02.186Z,62.75
2019-02-24T22:27:36.486Z,62.75
2019-02-24T22:30:12.110Z,62.71
2019-02-24T22:32:46.308Z,62.75
2019-02-24T22:35:20.769Z,62.76
2019-02-24T22:37:54.869Z,62.71
2019-02-24T22:40:29.045Z,62.85
2019-02-24T22:43:03.286Z,62.86
2019-02-24T22:45:38.302Z,62.75
2019-02-24T22:48:12.482Z,62.78
2019-02-24T22:50:46.646Z,62.78
2019-02-24T22:53:20.768Z,62.72
2019-02-24T22:55:54.918Z,62.73
2019-02-24T22:58:29.226Z,62.77
2019-02-24T23:01:18.663Z,62.79
2019-02-24T23:03:54.712Z,62.70
2019-02-24T23:06:28.929Z,62.52
2019-02-24T23:09:03.051Z,62.80
2019-02-24T23:11:38.559Z,62.62
2019-02-24T23:14:12.626Z,62.56
2019-02-24T23:16:46.682Z,62.69
2019-02-24T23:19:20.673Z,62.81
2019-02-24T23:21:54.682Z,62.70
2019-02-24T23:24:28.945Z,62.74
2019-02-24T23:27:03.132Z,62.85
2019-02-24T23:29:37.268Z,62.71
2019-02-24T23:32:11.350Z,62.68
2019-02-24T23:34:45.755Z,62.58
2019-02-24T23:37:19.841Z,62.73
2019-02-24T23:39:53.975Z,62.72
2019-02-24T23:42:28.271Z,62.61
2019-02-24T23:45:10.002Z,62.69
2019-02-24T23:47:38.828Z,62.54
2019-02-24T23:50:13.341Z,62.64
2019-02-24T23:52:47.547Z,62.66
2019-02-24T23:55:21.833Z,62.62
2019-02-24T23:57:56.319Z,62.56
